sensor_id;sensor_type;location;lat;lon;timestamp;P1;durP1;ratioP1;P2;durP2;ratioP2
355;SDS011;62514;48.112;11.566;2023-10-09T00:02:11;388.90;;;121.57;;
355;SDS011;62514;48.112;11.566;2023-10-09T00:04:37;393.80;;;123.57;;
355;SDS011;62514;48.112;11.566;2023-10-09T00:07:06;321.43;;;99.47;;
355;SDS011;62514;48.112;11.566;2023-10-09T00:09:34;384.30;;;119.80;;
355;SDS011;62514;48.112;11.566;2023-10-09T00:12:12;392.27;;;122.33;;
355;SDS011;62514;48.112;11.566;2023-10-09T00:14:48;381.00;;;116.37;;
355;SDS011;62514;48.112;11.566;2023-10-09T00:17:20;385.13;;;120.67;;
355;SDS011;62514;48.112;11.566;2023-10-09T00:19:48;384.00;;;118.07;;
355;SDS011;62514;48.112;11.566;2023-10-09T00:22:16;398.37;;;126.63;;
355;SDS011;62514;48.112;11.566;2023-10-09T00:24:54;382.60;;;117.40;;
355;SDS011;62514;48.112;11.566;2023-10-09T00:27:40;402.77;;;129.27;;
355;SDS011;62514;48.112;11.566;2023-10-09T00:30:08;383.33;;;119.57;;
355;SDS011;62514;48.112;11.566;2023-10-09T00:32:36;380.43;;;116.90;;
355;SDS011;62514;48.112;11.566;2023-10-09T00:35:07;393.23;;;122.87;;
355;SDS011;62514;48.112;11.566;2023-10-09T00:37:59;384.57;;;119.40;;
355;SDS011;62514;48.112;11.566;2023-10-09T00:40:32;305.47;;;92.63;;
355;SDS011;62514;48.112;11.566;2023-10-09T00:43:00;313.43;;;96.70;;
355;SDS011;62514;48.112;11.566;2023-10-09T00:45:31;395.40;;;126.80;;
355;SDS011;62514;48.112;11.566;2023-10-09T00:47:58;303.13;;;91.30;;
355;SDS011;62514;48.112;11.566;2023-10-09T00:50:27;315.13;;;98.30;;
355;SDS011;62514;48.112;11.566;2023-10-09T00:53:00;383.43;;;119.67;;
355;SDS011;62514;48.112;11.566;2023-10-09T00:55:36;305.20;;;92.80;;
355;SDS011;62514;48.112;11.566;2023-10-09T00:58:08;312.20;;;96.13;;
355;SDS011;62514;48.112;11.566;2023-10-09T01:00:37;324.57;;;100.10;;
355;SDS011;62514;48.112;11.566;2023-10-09T01:03:13;394.60;;;125.00;;
355;SDS011;62514;48.112;11.566;2023-10-09T01:05:46;376.53;;;117.07;;
355;SDS011;62514;48.112;11.566;2023-10-09T01:08:20;319.03;;;99.83;;
355;SDS011;62514;48.112;11.566;2023-10-09T01:10:55;322.43;;;100.60;;
355;SDS011;62514;48.112;11.566;2023-10-09T01:13:23;385.23;;;121.60;;
355;SDS011;62514;48.112;11.566;2023-10-09T01:16:05;380.43;;;118.07;;
355;SDS011;62514;48.112;11.566;2023-10-09T01:18:31;395.67;;;125.37;;
355;SDS011;62514;48.112;11.566;2023-10-09T01:21:02;379.10;;;117.40;;
355;SDS011;62514;48.112;11.566;2023-10-09T01:23:28;310.80;;;95.53;;
355;SDS011;62514;48.112;11.566;2023-10-09T01:25:55;314.77;;;97.40;;
355;SDS011;62514;48.112;11.566;2023-10-09T01:28:20;382.10;;;120.20;;
355;SDS011;62514;48.112;11.566;2023-10-09T01:30:46;388.03;;;122.23;;
355;SDS011;62514;48.112;11.566;2023-10-09T01:33:12;380.67;;;117.93;;
355;SDS011;62514;48.112;11.566;2023-10-09T01:35:52;312.70;;;96.57;;
355;SDS011;62514;48.112;11.566;2023-10-09T01:38:24;318.77;;;100.90;;
355;SDS011;62514;48.112;11.566;2023-10-09T01:41:07;330.00;;;104.90;;
355;SDS011;62514;48.112;11.566;2023-10-09T01:43:40;380.93;;;119.03;;
355;SDS011;62514;48.112;11.566;2023-10-09T01:46:09;384.70;;;122.47;;
355;SDS011;62514;48.112;11.566;2023-10-09T01:48:36;390.53;;;124.10;;
355;SDS011;62514;48.112;11.566;2023-10-09T01:51:05;379.30;;;117.97;;
355;SDS011;62514;48.112;11.566;2023-10-09T01:53:31;369.27;;;113.93;;
355;SDS011;62514;48.112;11.566;2023-10-09T01:56:07;317.30;;;98.13;;
355;SDS011;62514;48.112;11.566;2023-10-09T01:58:35;315.30;;;98.47;;
355;SDS011;62514;48.112;11.566;2023-10-09T02:01:00;373.00;;;116.10;;
355;SDS011;62514;48.112;11.566;2023-10-09T02:03:29;381.17;;;118.83;;
355;SDS011;62514;48.112;11.566;2023-10-09T02:05:56;390.00;;;123.87;;
355;SDS011;62514;48.112;11.566;2023-10-09T02:08:25;383.80;;;119.30;;
355;SDS011;62514;48.112;11.566;2023-10-09T02:11:00;378.30;;;116.53;;
355;SDS011;62514;48.112;11.566;2023-10-09T02:13:27;382.77;;;119.70;;
355;SDS011;62514;48.112;11.566;2023-10-09T02:16:00;382.43;;;120.03;;
355;SDS011;62514;48.112;11.566;2023-10-09T02:18:37;394.17;;;125.67;;
355;SDS011;62514;48.112;11.566;2023-10-09T02:21:21;393.83;;;123.63;;
355;SDS011;62514;48.112;11.566;2023-10-09T02:23:54;381.03;;;117.10;;
355;SDS011;62514;48.112;11.566;2023-10-09T02:26:22;319.70;;;99.90;;
355;SDS011;62514;48.112;11.566;2023-10-09T02:28:57;393.57;;;124.70;;
355;SDS011;62514;48.112;11.566;2023-10-09T02:31:30;391.60;;;121.00;;
355;SDS011;62514;48.112;11.566;2023-10-09T02:34:05;113.03;;;29.17;;
355;SDS011;62514;48.112;11.566;2023-10-09T02:36:35;340.17;;;102.03;;
355;SDS011;62514;48.112;11.566;2023-10-09T02:39:06;311.30;;;93.27;;
355;SDS011;62514;48.112;11.566;2023-10-09T02:41:46;345.90;;;107.13;;
355;SDS011;62514;48.112;11.566;2023-10-09T02:44:14;334.33;;;101.43;;
355;SDS011;62514;48.112;11.566;2023-10-09T02:46:41;310.63;;;94.10;;
355;SDS011;62514;48.112;11.566;2023-10-09T02:49:09;336.43;;;102.03;;
355;SDS011;62514;48.112;11.566;2023-10-09T02:51:40;320.07;;;96.03;;
355;SDS011;62514;48.112;11.566;2023-10-09T02:54:07;342.60;;;106.50;;
355;SDS011;62514;48.112;11.566;2023-10-09T02:56:49;338.00;;;103.00;;
355;SDS011;62514;48.112;11.566;2023-10-09T02:59:22;324.03;;;96.13;;
355;SDS011;62514;48.112;11.566;2023-10-09T03:01:48;315.77;;;93.80;;
355;SDS011;62514;48.112;11.566;2023-10-09T03:04:15;400.27;;;121.57;;
355;SDS011;62514;48.112;11.566;2023-10-09T03:06:41;315.27;;;94.17;;
355;SDS011;62514;48.112;11.566;2023-10-09T03:09:19;319.63;;;95.70;;
355;SDS011;62514;48.112;11.566;2023-10-09T03:11:52;385.73;;;115.70;;
355;SDS011;62514;48.112;11.566;2023-10-09T03:14:21;392.93;;;121.43;;
355;SDS011;62514;48.112;11.566;2023-10-09T03:16:51;385.60;;;115.83;;
355;SDS011;62514;48.112;11.566;2023-10-09T03:19:17;392.17;;;120.47;;
355;SDS011;62514;48.112;11.566;2023-10-09T03:21:43;391.83;;;117.33;;
355;SDS011;62514;48.112;11.566;2023-10-09T03:24:09;395.80;;;121.40;;
355;SDS011;62514;48.112;11.566;2023-10-09T03:26:36;395.60;;;121.13;;
355;SDS011;62514;48.112;11.566;2023-10-09T03:29:02;393.50;;;119.20;;
355;SDS011;62514;48.112;11.566;2023-10-09T03:31:35;389.57;;;118.67;;
355;SDS011;62514;48.112;11.566;2023-10-09T03:34:04;388.83;;;117.13;;
355;SDS011;62514;48.112;11.566;2023-10-09T03:36:30;390.43;;;116.83;;
355;SDS011;62514;48.112;11.566;2023-10-09T03:38:56;391.30;;;118.43;;
355;SDS011;62514;48.112;11.566;2023-10-09T03:41:28;402.20;;;121.77;;
355;SDS011;62514;48.112;11.566;2023-10-09T03:43:54;405.20;;;121.90;;
355;SDS011;62514;48.112;11.566;2023-10-09T03:46:20;393.13;;;118.90;;
355;SDS011;62514;48.112;11.566;2023-10-09T03:48:48;393.07;;;118.77;;
355;SDS011;62514;48.112;11.566;2023-10-09T03:51:14;332.67;;;102.63;;
355;SDS011;62514;48.112;11.566;2023-10-09T03:53:51;322.23;;;97.60;;
355;SDS011;62514;48.112;11.566;2023-10-09T03:56:18;387.23;;;117.90;;
355;SDS011;62514;48.112;11.566;2023-10-09T03:58:46;397.27;;;122.60;;
355;SDS011;62514;48.112;11.566;2023-10-09T04:01:19;386.23;;;118.07;;
355;SDS011;62514;48.112;11.566;2023-10-09T04:03:52;387.57;;;118.47;;
355;SDS011;62514;48.112;11.566;2023-10-09T04:06:23;335.63;;;104.13;;
355;SDS011;62514;48.112;11.566;2023-10-09T04:08:53;382.47;;;115.80;;
355;SDS011;62514;48.112;11.566;2023-10-09T04:11:20;393.10;;;123.30;;
355;SDS011;62514;48.112;11.566;2023-10-09T04:13:50;375.63;;;114.40;;
355;SDS011;62514;48.112;11.566;2023-10-09T04:16:17;390.70;;;120.60;;
355;SDS011;62514;48.112;11.566;2023-10-09T04:18:55;392.00;;;122.00;;
355;SDS011;62514;48.112;11.566;2023-10-09T04:21:22;400.37;;;126.60;;
355;SDS011;62514;48.112;11.566;2023-10-09T04:24:04;401.57;;;127.47;;
355;SDS011;62514;48.112;11.566;2023-10-09T04:26:37;388.97;;;120.17;;
355;SDS011;62514;48.112;11.566;2023-10-09T04:29:09;384.87;;;116.57;;
355;SDS011;62514;48.112;11.566;2023-10-09T04:31:38;316.53;;;96.50;;
355;SDS011;62514;48.112;11.566;2023-10-09T04:34:04;323.97;;;100.73;;
355;SDS011;62514;48.112;11.566;2023-10-09T04:36:54;340.30;;;109.90;;
355;SDS011;62514;48.112;11.566;2023-10-09T04:39:26;309.33;;;93.40;;
355;SDS011;62514;48.112;11.566;2023-10-09T04:41:55;385.47;;;119.40;;
355;SDS011;62514;48.112;11.566;2023-10-09T04:44:44;384.87;;;118.33;;
355;SDS011;62514;48.112;11.566;2023-10-09T04:47:26;381.60;;;116.20;;
355;SDS011;62514;48.112;11.566;2023-10-09T04:50:01;414.93;;;134.17;;
355;SDS011;62514;48.112;11.566;2023-10-09T04:52:35;392.00;;;123.57;;
355;SDS011;62514;48.112;11.566;2023-10-09T04:55:01;387.73;;;118.80;;
355;SDS011;62514;48.112;11.566;2023-10-09T04:57:33;386.63;;;117.90;;
355;SDS011;62514;48.112;11.566;2023-10-09T05:00:06;386.63;;;116.00;;
355;SDS011;62514;48.112;11.566;2023-10-09T05:02:48;391.73;;;123.37;;
355;SDS011;62514;48.112;11.566;2023-10-09T05:05:29;395.33;;;124.73;;
355;SDS011;62514;48.112;11.566;2023-10-09T05:08:11;389.43;;;121.20;;
355;SDS011;62514;48.112;11.566;2023-10-09T05:11:05;381.63;;;116.30;;
355;SDS011;62514;48.112;11.566;2023-10-09T05:13:40;317.27;;;98.63;;
355;SDS011;62514;48.112;11.566;2023-10-09T05:16:16;377.10;;;115.23;;
355;SDS011;62514;48.112;11.566;2023-10-09T05:18:45;396.47;;;127.53;;
355;SDS011;62514;48.112;11.566;2023-10-09T05:21:24;323.43;;;101.93;;
355;SDS011;62514;48.112;11.566;2023-10-09T05:23:57;380.63;;;117.83;;
355;SDS011;62514;48.112;11.566;2023-10-09T05:26:42;385.37;;;119.90;;
355;SDS011;62514;48.112;11.566;2023-10-09T05:29:12;378.63;;;116.50;;
355;SDS011;62514;48.112;11.566;2023-10-09T05:31:47;389.27;;;122.17;;
355;SDS011;62514;48.112;11.566;2023-10-09T05:34:32;383.73;;;121.37;;
355;SDS011;62514;48.112;11.566;2023-10-09T05:37:05;378.07;;;117.50;;
355;SDS011;62514;48.112;11.566;2023-10-09T05:39:50;380.27;;;118.13;;
355;SDS011;62514;48.112;11.566;2023-10-09T05:42:26;384.47;;;121.17;;
355;SDS011;62514;48.112;11.566;2023-10-09T05:45:11;390.60;;;125.07;;
355;SDS011;62514;48.112;11.566;2023-10-09T05:47:57;382.90;;;121.07;;
355;SDS011;62514;48.112;11.566;2023-10-09T05:50:24;386.27;;;122.30;;
355;SDS011;62514;48.112;11.566;2023-10-09T05:52:51;304.37;;;93.73;;
355;SDS011;62514;48.112;11.566;2023-10-09T05:55:21;389.73;;;124.77;;
355;SDS011;62514;48.112;11.566;2023-10-09T05:57:51;392.17;;;124.80;;
355;SDS011;62514;48.112;11.566;2023-10-09T06:00:20;414.57;;;137.27;;
355;SDS011;62514;48.112;11.566;2023-10-09T06:03:07;385.57;;;123.20;;
355;SDS011;62514;48.112;11.566;2023-10-09T06:08:24;383.60;;;120.67;;
355;SDS011;62514;48.112;11.566;2023-10-09T06:11:06;386.10;;;120.13;;
355;SDS011;62514;48.112;11.566;2023-10-09T06:13:52;378.47;;;117.07;;
355;SDS011;62514;48.112;11.566;2023-10-09T06:16:33;373.37;;;114.17;;
355;SDS011;62514;48.112;11.566;2023-10-09T06:19:07;376.47;;;116.67;;
355;SDS011;62514;48.112;11.566;2023-10-09T06:21:36;389.10;;;121.97;;
355;SDS011;62514;48.112;11.566;2023-10-09T06:24:24;388.17;;;124.17;;
355;SDS011;62514;48.112;11.566;2023-10-09T06:26:51;379.43;;;118.27;;
355;SDS011;62514;48.112;11.566;2023-10-09T06:29:23;381.07;;;119.77;;
355;SDS011;62514;48.112;11.566;2023-10-09T06:32:01;394.03;;;127.10;;
355;SDS011;62514;48.112;11.566;2023-10-09T06:34:54;389.60;;;125.30;;
355;SDS011;62514;48.112;11.566;2023-10-09T06:37:45;391.73;;;122.40;;
355;SDS011;62514;48.112;11.566;2023-10-09T06:40:31;385.20;;;120.43;;
355;SDS011;62514;48.112;11.566;2023-10-09T06:43:16;331.67;;;102.80;;
355;SDS011;62514;48.112;11.566;2023-10-09T06:45:43;323.13;;;100.97;;
355;SDS011;62514;48.112;11.566;2023-10-09T06:48:09;318.83;;;99.17;;
355;SDS011;62514;48.112;11.566;2023-10-09T06:50:55;378.57;;;116.60;;
355;SDS011;62514;48.112;11.566;2023-10-09T06:53:29;324.93;;;98.07;;
355;SDS011;62514;48.112;11.566;2023-10-09T06:56:13;321.43;;;99.47;;
355;SDS011;62514;48.112;11.566;2023-10-09T06:58:51;332.27;;;106.43;;
355;SDS011;62514;48.112;11.566;2023-10-09T07:01:20;314.17;;;96.33;;
355;SDS011;62514;48.112;11.566;2023-10-09T07:04:11;385.93;;;120.53;;
355;SDS011;62514;48.112;11.566;2023-10-09T07:06:55;398.17;;;127.47;;
355;SDS011;62514;48.112;11.566;2023-10-09T07:09:21;398.67;;;126.97;;
355;SDS011;62514;48.112;11.566;2023-10-09T07:11:48;400.37;;;129.23;;
355;SDS011;62514;48.112;11.566;2023-10-09T07:19:49;319.07;;;97.07;;
355;SDS011;62514;48.112;11.566;2023-10-09T07:22:15;412.67;;;131.43;;
355;SDS011;62514;48.112;11.566;2023-10-09T07:24:43;399.53;;;127.60;;
355;SDS011;62514;48.112;11.566;2023-10-09T07:27:09;395.17;;;120.53;;
355;SDS011;62514;48.112;11.566;2023-10-09T07:29:39;402.37;;;126.33;;
355;SDS011;62514;48.112;11.566;2023-10-09T07:32:14;400.33;;;125.60;;
355;SDS011;62514;48.112;11.566;2023-10-09T07:34:46;392.17;;;119.10;;
355;SDS011;62514;48.112;11.566;2023-10-09T07:37:22;409.10;;;121.60;;
355;SDS011;62514;48.112;11.566;2023-10-09T07:39:51;401.57;;;116.37;;
355;SDS011;62514;48.112;11.566;2023-10-09T07:42:24;210.37;;;55.23;;
355;SDS011;62514;48.112;11.566;2023-10-09T07:45:02;166.17;;;41.90;;
355;SDS011;62514;48.112;11.566;2023-10-09T07:47:48;157.40;;;37.83;;
355;SDS011;62514;48.112;11.566;2023-10-09T07:50:37;218.57;;;55.57;;
355;SDS011;62514;48.112;11.566;2023-10-09T07:53:06;200.07;;;50.20;;
355;SDS011;62514;48.112;11.566;2023-10-09T07:55:51;227.57;;;57.60;;
355;SDS011;62514;48.112;11.566;2023-10-09T07:58:29;288.23;;;82.47;;
355;SDS011;62514;48.112;11.566;2023-10-09T08:00:56;167.63;;;42.73;;
355;SDS011;62514;48.112;11.566;2023-10-09T08:03:33;304.70;;;78.03;;
355;SDS011;62514;48.112;11.566;2023-10-09T08:06:01;182.23;;;44.07;;
355;SDS011;62514;48.112;11.566;2023-10-09T08:08:52;402.67;;;118.20;;
355;SDS011;62514;48.112;11.566;2023-10-09T08:11:36;402.70;;;119.40;;
355;SDS011;62514;48.112;11.566;2023-10-09T08:14:08;345.57;;;92.73;;
355;SDS011;62514;48.112;11.566;2023-10-09T08:16:53;338.97;;;100.20;;
355;SDS011;62514;48.112;11.566;2023-10-09T08:19:45;340.83;;;99.47;;
355;SDS011;62514;48.112;11.566;2023-10-09T08:22:36;356.63;;;108.27;;
355;SDS011;62514;48.112;11.566;2023-10-09T08:25:09;342.17;;;100.60;;
355;SDS011;62514;48.112;11.566;2023-10-09T08:28:01;360.40;;;108.30;;
355;SDS011;62514;48.112;11.566;2023-10-09T08:30:57;410.63;;;130.27;;
355;SDS011;62514;48.112;11.566;2023-10-09T08:33:29;413.07;;;129.37;;
355;SDS011;62514;48.112;11.566;2023-10-09T08:36:09;433.03;;;136.23;;
355;SDS011;62514;48.112;11.566;2023-10-09T08:38:39;416.30;;;132.43;;
355;SDS011;62514;48.112;11.566;2023-10-09T08:41:10;403.27;;;127.87;;
355;SDS011;62514;48.112;11.566;2023-10-09T08:43:47;411.43;;;131.27;;
355;SDS011;62514;48.112;11.566;2023-10-09T08:46:20;332.10;;;100.50;;
355;SDS011;62514;48.112;11.566;2023-10-09T08:48:47;410.77;;;134.30;;
355;SDS011;62514;48.112;11.566;2023-10-09T08:51:13;409.47;;;130.33;;
355;SDS011;62514;48.112;11.566;2023-10-09T08:53:39;410.43;;;129.97;;
355;SDS011;62514;48.112;11.566;2023-10-09T08:56:10;415.50;;;130.00;;
355;SDS011;62514;48.112;11.566;2023-10-09T08:58:47;415.87;;;132.43;;
355;SDS011;62514;48.112;11.566;2023-10-09T09:01:17;425.67;;;138.27;;
355;SDS011;62514;48.112;11.566;2023-10-09T09:03:47;421.47;;;135.17;;
355;SDS011;62514;48.112;11.566;2023-10-09T09:06:15;430.17;;;143.07;;
355;SDS011;62514;48.112;11.566;2023-10-09T09:08:44;330.53;;;99.13;;
355;SDS011;62514;48.112;11.566;2023-10-09T09:11:11;335.10;;;100.30;;
355;SDS011;62514;48.112;11.566;2023-10-09T09:16:29;414.17;;;128.27;;
355;SDS011;62514;48.112;11.566;2023-10-09T09:19:02;349.40;;;105.03;;
355;SDS011;62514;48.112;11.566;2023-10-09T09:21:30;435.17;;;139.87;;
355;SDS011;62514;48.112;11.566;2023-10-09T09:24:06;421.30;;;127.53;;
355;SDS011;62514;48.112;11.566;2023-10-09T09:26:52;425.13;;;130.13;;
355;SDS011;62514;48.112;11.566;2023-10-09T09:32:08;420.07;;;134.87;;
355;SDS011;62514;48.112;11.566;2023-10-09T09:34:46;414.00;;;132.23;;
355;SDS011;62514;48.112;11.566;2023-10-09T09:37:30;416.77;;;133.80;;
355;SDS011;62514;48.112;11.566;2023-10-09T09:40:19;329.63;;;96.93;;
355;SDS011;62514;48.112;11.566;2023-10-09T09:42:58;434.77;;;145.03;;
355;SDS011;62514;48.112;11.566;2023-10-09T09:45:31;432.70;;;130.50;;
355;SDS011;62514;48.112;11.566;2023-10-09T09:48:00;432.73;;;143.63;;
355;SDS011;62514;48.112;11.566;2023-10-09T09:50:34;421.70;;;135.37;;
355;SDS011;62514;48.112;11.566;2023-10-09T09:53:05;464.17;;;156.73;;
355;SDS011;62514;48.112;11.566;2023-10-09T09:55:33;435.13;;;144.87;;
355;SDS011;62514;48.112;11.566;2023-10-09T09:58:01;418.80;;;125.90;;
355;SDS011;62514;48.112;11.566;2023-10-09T10:00:31;422.30;;;135.47;;
355;SDS011;62514;48.112;11.566;2023-10-09T10:03:24;422.33;;;135.93;;
355;SDS011;62514;48.112;11.566;2023-10-09T10:06:02;421.50;;;134.07;;
355;SDS011;62514;48.112;11.566;2023-10-09T10:08:35;425.03;;;131.07;;
355;SDS011;62514;48.112;11.566;2023-10-09T10:11:04;434.57;;;129.60;;
355;SDS011;62514;48.112;11.566;2023-10-09T10:16:09;433.00;;;137.73;;
355;SDS011;62514;48.112;11.566;2023-10-09T10:18:52;414.13;;;129.40;;
355;SDS011;62514;48.112;11.566;2023-10-09T10:21:42;423.07;;;125.33;;
355;SDS011;62514;48.112;11.566;2023-10-09T10:29:43;429.43;;;132.80;;
355;SDS011;62514;48.112;11.566;2023-10-09T10:32:11;433.83;;;130.30;;
355;SDS011;62514;48.112;11.566;2023-10-09T10:37:12;425.60;;;136.70;;
355;SDS011;62514;48.112;11.566;2023-10-09T10:39:51;431.27;;;131.33;;
355;SDS011;62514;48.112;11.566;2023-10-09T10:42:24;435.93;;;133.90;;
355;SDS011;62514;48.112;11.566;2023-10-09T10:45:01;426.10;;;137.73;;
355;SDS011;62514;48.112;11.566;2023-10-09T10:47:28;407.53;;;121.10;;
355;SDS011;62514;48.112;11.566;2023-10-09T10:49:59;417.00;;;124.87;;
355;SDS011;62514;48.112;11.566;2023-10-09T10:52:49;420.23;;;131.33;;
355;SDS011;62514;48.112;11.566;2023-10-09T10:55:22;414.60;;;133.63;;
355;SDS011;62514;48.112;11.566;2023-10-09T10:58:00;421.27;;;134.00;;
355;SDS011;62514;48.112;11.566;2023-10-09T11:00:30;420.23;;;129.07;;
355;SDS011;62514;48.112;11.566;2023-10-09T11:03:18;438.97;;;144.73;;
355;SDS011;62514;48.112;11.566;2023-10-09T11:09:06;422.97;;;138.63;;
355;SDS011;62514;48.112;11.566;2023-10-09T11:11:51;412.20;;;128.30;;
355;SDS011;62514;48.112;11.566;2023-10-09T11:14:44;417.10;;;132.57;;
355;SDS011;62514;48.112;11.566;2023-10-09T11:17:16;408.60;;;127.10;;
355;SDS011;62514;48.112;11.566;2023-10-09T11:19:50;412.43;;;129.43;;
355;SDS011;62514;48.112;11.566;2023-10-09T11:22:17;422.10;;;137.70;;
355;SDS011;62514;48.112;11.566;2023-10-09T11:25:01;409.90;;;124.20;;
355;SDS011;62514;48.112;11.566;2023-10-09T11:27:36;414.53;;;126.70;;
355;SDS011;62514;48.112;11.566;2023-10-09T11:30:05;405.17;;;123.43;;
355;SDS011;62514;48.112;11.566;2023-10-09T11:32:35;412.33;;;124.80;;
355;SDS011;62514;48.112;11.566;2023-10-09T11:35:13;414.57;;;124.80;;
355;SDS011;62514;48.112;11.566;2023-10-09T11:37:59;404.67;;;120.20;;
355;SDS011;62514;48.112;11.566;2023-10-09T11:40:32;417.37;;;125.90;;
355;SDS011;62514;48.112;11.566;2023-10-09T11:43:16;378.57;;;120.50;;
355;SDS011;62514;48.112;11.566;2023-10-09T11:45:42;409.03;;;121.20;;
355;SDS011;62514;48.112;11.566;2023-10-09T11:48:19;411.13;;;121.80;;
355;SDS011;62514;48.112;11.566;2023-10-09T11:50:58;417.43;;;127.87;;
355;SDS011;62514;48.112;11.566;2023-10-09T11:53:39;410.27;;;124.20;;
355;SDS011;62514;48.112;11.566;2023-10-09T11:56:10;408.83;;;127.03;;
355;SDS011;62514;48.112;11.566;2023-10-09T11:58:41;414.70;;;127.93;;
355;SDS011;62514;48.112;11.566;2023-10-09T12:01:13;401.63;;;120.50;;
355;SDS011;62514;48.112;11.566;2023-10-09T12:03:45;424.03;;;132.17;;
355;SDS011;62514;48.112;11.566;2023-10-09T12:06:14;409.87;;;123.83;;
355;SDS011;62514;48.112;11.566;2023-10-09T12:08:44;401.23;;;120.60;;
355;SDS011;62514;48.112;11.566;2023-10-09T12:11:14;402.17;;;124.77;;
355;SDS011;62514;48.112;11.566;2023-10-09T12:13:47;407.20;;;123.07;;
355;SDS011;62514;48.112;11.566;2023-10-09T12:16:13;411.40;;;129.30;;
355;SDS011;62514;48.112;11.566;2023-10-09T12:18:40;398.90;;;123.83;;
355;SDS011;62514;48.112;11.566;2023-10-09T12:21:07;406.60;;;120.97;;
355;SDS011;62514;48.112;11.566;2023-10-09T12:23:40;411.77;;;123.07;;
355;SDS011;62514;48.112;11.566;2023-10-09T12:26:08;405.10;;;123.90;;
355;SDS011;62514;48.112;11.566;2023-10-09T12:28:39;402.70;;;121.33;;
355;SDS011;62514;48.112;11.566;2023-10-09T12:31:05;400.27;;;120.03;;
355;SDS011;62514;48.112;11.566;2023-10-09T12:33:31;404.60;;;126.37;;
355;SDS011;62514;48.112;11.566;2023-10-09T12:35:57;418.97;;;123.60;;
355;SDS011;62514;48.112;11.566;2023-10-09T12:38:26;413.43;;;124.37;;
355;SDS011;62514;48.112;11.566;2023-10-09T12:41:04;405.03;;;126.27;;
355;SDS011;62514;48.112;11.566;2023-10-09T12:44:03;406.30;;;128.37;;
355;SDS011;62514;48.112;11.566;2023-10-09T12:46:29;404.83;;;123.37;;
355;SDS011;62514;48.112;11.566;2023-10-09T12:49:02;422.83;;;133.03;;
355;SDS011;62514;48.112;11.566;2023-10-09T12:51:28;419.00;;;130.20;;
355;SDS011;62514;48.112;11.566;2023-10-09T12:53:56;407.17;;;129.63;;
355;SDS011;62514;48.112;11.566;2023-10-09T12:56:22;435.10;;;142.57;;
355;SDS011;62514;48.112;11.566;2023-10-09T12:58:57;426.57;;;136.70;;
355;SDS011;62514;48.112;11.566;2023-10-09T13:01:26;418.87;;;131.97;;
355;SDS011;62514;48.112;11.566;2023-10-09T13:03:57;416.50;;;129.60;;
355;SDS011;62514;48.112;11.566;2023-10-09T13:06:25;418.57;;;137.97;;
355;SDS011;62514;48.112;11.566;2023-10-09T13:08:51;412.27;;;122.10;;
355;SDS011;62514;48.112;11.566;2023-10-09T13:11:17;427.10;;;123.83;;
355;SDS011;62514;48.112;11.566;2023-10-09T13:13:44;426.23;;;130.50;;
355;SDS011;62514;48.112;11.566;2023-10-09T13:16:24;417.93;;;134.60;;
355;SDS011;62514;48.112;11.566;2023-10-09T13:18:51;423.47;;;140.93;;
355;SDS011;62514;48.112;11.566;2023-10-09T13:21:21;418.63;;;132.63;;
355;SDS011;62514;48.112;11.566;2023-10-09T13:23:49;419.57;;;134.03;;
355;SDS011;62514;48.112;11.566;2023-10-09T13:26:19;414.80;;;135.07;;
355;SDS011;62514;48.112;11.566;2023-10-09T13:28:55;421.13;;;138.50;;
355;SDS011;62514;48.112;11.566;2023-10-09T13:31:22;427.00;;;136.47;;
355;SDS011;62514;48.112;11.566;2023-10-09T13:33:53;420.90;;;132.00;;
355;SDS011;62514;48.112;11.566;2023-10-09T13:36:20;422.33;;;136.37;;
355;SDS011;62514;48.112;11.566;2023-10-09T13:38:59;375.43;;;116.80;;
355;SDS011;62514;48.112;11.566;2023-10-09T13:41:44;413.77;;;121.10;;
355;SDS011;62514;48.112;11.566;2023-10-09T13:44:13;414.33;;;126.90;;
355;SDS011;62514;48.112;11.566;2023-10-09T13:46:40;375.97;;;114.50;;
355;SDS011;62514;48.112;11.566;2023-10-09T13:49:09;419.17;;;120.10;;
355;SDS011;62514;48.112;11.566;2023-10-09T13:51:42;399.57;;;112.73;;
355;SDS011;62514;48.112;11.566;2023-10-09T13:54:12;393.50;;;108.73;;
355;SDS011;62514;48.112;11.566;2023-10-09T13:56:53;415.90;;;126.93;;
355;SDS011;62514;48.112;11.566;2023-10-09T13:59:20;404.33;;;113.73;;
355;SDS011;62514;48.112;11.566;2023-10-09T14:01:48;377.13;;;109.50;;
355;SDS011;62514;48.112;11.566;2023-10-09T14:04:15;379.60;;;112.13;;
355;SDS011;62514;48.112;11.566;2023-10-09T14:06:44;352.00;;;102.67;;
355;SDS011;62514;48.112;11.566;2023-10-09T14:09:11;255.10;;;66.07;;
355;SDS011;62514;48.112;11.566;2023-10-09T14:11:53;332.27;;;88.80;;
355;SDS011;62514;48.112;11.566;2023-10-09T14:14:41;395.63;;;118.10;;
355;SDS011;62514;48.112;11.566;2023-10-09T14:17:22;391.37;;;111.80;;
355;SDS011;62514;48.112;11.566;2023-10-09T14:19:53;366.60;;;106.10;;
355;SDS011;62514;48.112;11.566;2023-10-09T14:22:20;377.47;;;108.87;;
355;SDS011;62514;48.112;11.566;2023-10-09T14:24:50;376.73;;;103.03;;
355;SDS011;62514;48.112;11.566;2023-10-09T14:27:21;345.97;;;94.07;;
355;SDS011;62514;48.112;11.566;2023-10-09T14:29:52;371.90;;;105.13;;
355;SDS011;62514;48.112;11.566;2023-10-09T14:32:24;292.47;;;74.57;;
355;SDS011;62514;48.112;11.566;2023-10-09T14:34:59;396.13;;;116.43;;
355;SDS011;62514;48.112;11.566;2023-10-09T14:37:27;265.93;;;71.10;;
355;SDS011;62514;48.112;11.566;2023-10-09T14:39:53;365.23;;;102.10;;
355;SDS011;62514;48.112;11.566;2023-10-09T14:42:21;338.57;;;94.47;;
355;SDS011;62514;48.112;11.566;2023-10-09T14:44:49;353.20;;;96.27;;
355;SDS011;62514;48.112;11.566;2023-10-09T14:47:15;402.70;;;124.30;;
355;SDS011;62514;48.112;11.566;2023-10-09T14:49:41;343.97;;;99.47;;
355;SDS011;62514;48.112;11.566;2023-10-09T14:52:10;394.70;;;114.53;;
355;SDS011;62514;48.112;11.566;2023-10-09T14:54:36;213.63;;;55.13;;
355;SDS011;62514;48.112;11.566;2023-10-09T14:57:03;221.43;;;53.23;;
355;SDS011;62514;48.112;11.566;2023-10-09T14:59:33;363.53;;;101.10;;
355;SDS011;62514;48.112;11.566;2023-10-09T15:02:00;367.13;;;104.77;;
355;SDS011;62514;48.112;11.566;2023-10-09T15:04:26;424.33;;;126.63;;
355;SDS011;62514;48.112;11.566;2023-10-09T15:06:52;413.33;;;123.67;;
355;SDS011;62514;48.112;11.566;2023-10-09T15:09:18;408.33;;;123.93;;
355;SDS011;62514;48.112;11.566;2023-10-09T15:11:47;404.47;;;117.17;;
355;SDS011;62514;48.112;11.566;2023-10-09T15:14:17;406.30;;;120.33;;